Ben-my-chree — MXLG6 — position and weather

sailwx.info

Track history (hours):
 
Tides and Currents Weather Stations Pressure Air Temp Water Temp Dewpoint Dewpoint Depression Visibility Wind Speed Wind Dir Waves Ship Positions

Ben-my-chree

Operator: The Isle of Man Steam Packet Co Ltd

Last reported at 2019-Jul-20 01:30 UTC. Time now 2019-Jul-20 01:47 UTC.
Position N 53°58' W 003°02'.

Length 125 m; draft 5.2 m.

Type: Ship. MMSI: 234983000.

Date/timePositionNaut miles runAvg speedWind from/ knotsBaromVisibWave heightAir tempDewpointWater temp
2019-Jul-20 01:30N 53°58' W 003°02'6 3.9
2019-Jul-20 00:01N 54°02' W 002°55'0 0.0
2019-Jul-19 23:55N 54°02' W 002°55'0 0.0
2019-Jul-19 23:25N 54°02' W 002°55'0 0.0
2019-Jul-19 22:58N 54°02' W 002°55'0 0.0
2019-Jul-19 22:22N 54°02' W 002°55'1 2.6
2019-Jul-19 22:00N 54°02' W 002°56'919.0
2019-Jul-19 21:31N 53°56' W 003°09'918.8
2019-Jul-19 21:00N 53°55' W 003°25'917.8
2019-Jul-19 20:30N 53°58' W 003°40'917.8
2019-Jul-19 19:59N 54°01' W 003°55'817.4
2019-Jul-19 19:30N 54°04' W 004°08'917.2
2019-Jul-19 19:00N 54°07' W 004°22'4 1.5
2019-Jul-19 16:22N 54°09' W 004°28'616.0
2019-Jul-19 16:00N 54°07' W 004°19'918.6
2019-Jul-19 15:31N 54°04' W 004°04'918.8
2019-Jul-19 15:00N 54°00' W 003°49'1318.7
2019-Jul-19 14:19N 53°56' W 003°29'618.8
2019-Jul-19 14:01N 53°56' W 003°19'918.1
2019-Jul-19 13:31N 53°58' W 003°04'713.3
2019-Jul-19 13:00N 54°02' W 002°55'0 0.0
2019-Jul-19 12:27N 54°02' W 002°55'0 0.0
2019-Jul-19 11:39N 54°02' W 002°55'0 0.0
2019-Jul-19 11:04N 54°02' W 002°55'0 2.1
2019-Jul-19 11:01N 54°02' W 002°55'816.4
2019-Jul-19 10:30N 53°57' W 003°06'918.5
2019-Jul-19 10:00N 53°56' W 003°21'917.7
2019-Jul-19 09:30N 53°57' W 003°36'917.9
2019-Jul-19 08:59N 54°01' W 003°51'14 2.1
2019-Jul-19 02:21N 53°56' W 003°29'618.2
2019-Jul-19 02:00N 53°56' W 003°18'918.0
2019-Jul-19 01:30N 53°58' W 003°03'6 5.9
2019-Jul-19 00:26N 54°02' W 002°55'0 0.0
2019-Jul-18 23:59N 54°02' W 002°55'0 0.0
2019-Jul-18 23:02N 54°02' W 002°55'0 0.0
2019-Jul-18 22:50N 54°02' W 002°55'0 0.0
2019-Jul-18 22:29N 54°02' W 002°55'0 0.3
2019-Jul-18 22:00N 54°02' W 002°55'917.3
2019-Jul-18 21:30N 53°57' W 003°07'918.9
2019-Jul-18 21:00N 53°56' W 003°22'918.8
2019-Jul-18 20:30N 53°58' W 003°38'918.5
2019-Jul-18 20:00N 54°01' W 003°53'918.1
2019-Jul-18 19:29N 54°04' W 004°08'25 4.8
2019-Jul-18 14:25N 53°56' W 003°29'818.1
2019-Jul-18 14:00N 53°56' W 003°16'918.0
2019-Jul-18 13:30N 53°58' W 003°02'5 8.9
2019-Jul-18 12:55N 54°02' W 002°55'0 0.0
2019-Jul-18 11:16N 54°02' W 002°55'0 0.0
2019-Jul-18 11:00N 54°02' W 002°55'815.6
2019-Jul-18 10:31N 53°57' W 003°05'1019.3
2019-Jul-18 10:01N 53°56' W 003°21'919.0
2019-Jul-18 09:31N 53°58' W 003°37'1018.9
2019-Jul-18 08:59N 54°01' W 003°53'15 2.3
2019-Jul-18 02:16N 53°56' W 003°29'518.8
2019-Jul-18 02:01N 53°56' W 003°21'918.5
2019-Jul-18 01:31N 53°57' W 003°05'815.3
2019-Jul-18 01:00N 54°02' W 002°55'0 0.0
2019-Jul-18 00:30N 54°02' W 002°55'0 0.0
2019-Jul-18 00:00N 54°02' W 002°55'0 0.0
2019-Jul-17 23:30N 54°02' W 002°55'0 0.0
2019-Jul-17 22:59N 54°02' W 002°55'0 0.0
2019-Jul-17 22:29N 54°02' W 002°55'0 0.0
2019-Jul-17 22:00N 54°02' W 002°55'611.4
2019-Jul-17 21:30N 53°58' W 003°02'1019.7
2019-Jul-17 21:00N 53°55' W 003°18'918.5
2019-Jul-17 20:30N 53°57' W 003°33'918.6
2019-Jul-17 20:00N 54°00' W 003°48'12 2.2
2019-Jul-17 14:24N 53°55' W 003°29'718.3
2019-Jul-17 14:00N 53°56' W 003°17'918.7
2019-Jul-17 13:30N 53°58' W 003°02'610.8
2019-Jul-17 13:00N 54°02' W 002°55'0 0.0
2019-Jul-17 12:30N 54°02' W 002°55'0 0.0
2019-Jul-17 12:00N 54°02' W 002°55'0 0.0
2019-Jul-17 11:30N 54°02' W 002°55'0 0.1
2019-Jul-17 10:53N 54°02' W 002°55'615.2
2019-Jul-17 10:30N 53°58' W 003°02'1019.4
2019-Jul-17 10:00N 53°55' W 003°18'918.6
2019-Jul-17 09:30N 53°57' W 003°34'1018.6
2019-Jul-17 09:00N 54°00' W 003°49'11 1.7
2019-Jul-17 02:17N 53°56' W 003°31'519.0
2019-Jul-17 02:01N 53°56' W 003°22'1019.2
2019-Jul-17 01:30N 53°57' W 003°06'8 7.0
2019-Jul-17 00:22N 54°02' W 002°55'0 0.0
2019-Jul-16 23:58N 54°02' W 002°55'0 0.0
2019-Jul-16 23:22N 54°02' W 002°55'0 0.0
2019-Jul-16 22:58N 54°02' W 002°55'0 0.0
2019-Jul-16 22:28N 54°02' W 002°55'0 0.0
2019-Jul-16 22:00N 54°02' W 002°55'714.8
2019-Jul-16 21:30N 53°57' W 003°04'1019.7
2019-Jul-16 21:01N 53°55' W 003°20'918.8
2019-Jul-16 20:31N 53°57' W 003°36'918.9
2019-Jul-16 20:01N 54°01' W 003°51'918.8
2019-Jul-16 19:30N 54°04' W 004°06'918.4
2019-Jul-16 19:00N 54°07' W 004°21'5 3.8
2019-Jul-16 17:45N 54°09' W 004°28'0 0.0
2019-Jul-16 17:27N 54°09' W 004°28'0 0.0
2019-Jul-16 16:57N 54°09' W 004°28'0 0.0
2019-Jul-16 16:27N 54°09' W 004°28'1816.1
2019-Jul-16 15:22N 54°03' W 004°00'618.2
2019-Jul-16 15:00N 54°00' W 003°50'918.1
2019-Jul-16 14:30N 53°57' W 003°35'918.1
2019-Jul-16 14:00N 53°55' W 003°20'918.9
2019-Jul-16 13:30N 53°57' W 003°05'714.8
2019-Jul-16 13:00N 54°02' W 002°55'0 0.0
2019-Jul-16 11:52N 54°02' W 002°55'0 0.0
2019-Jul-16 11:05N 54°02' W 002°55'0 0.2
2019-Jul-16 11:00N 54°02' W 002°55'714.1
2019-Jul-16 10:31N 53°58' W 003°04'918.7
2019-Jul-16 10:01N 53°55' W 003°19'918.7
2019-Jul-16 09:30N 53°56' W 003°35'918.8
2019-Jul-16 09:00N 53°59' W 003°50'918.8
2019-Jul-16 08:31N 54°03' W 004°05'918.5
2019-Jul-16 08:00N 54°07' W 004°19'610.3
2019-Jul-16 07:28N 54°09' W 004°28'0 0.0
2019-Jul-16 06:58N 54°09' W 004°28'0 0.0
2019-Jul-16 05:52N 54°09' W 004°28'0 0.0
2019-Jul-16 05:13N 54°09' W 004°28'0 0.0
2019-Jul-16 04:46N 54°09' W 004°28'0 0.0
2019-Jul-16 04:27N 54°09' W 004°28'813.4
2019-Jul-16 03:52N 54°07' W 004°15'718.4
2019-Jul-16 03:31N 54°05' W 004°05'918.1
2019-Jul-16 03:00N 54°00' W 003°51'918.1
2019-Jul-16 02:30N 53°58' W 003°37'918.2
2019-Jul-16 02:00N 53°56' W 003°22'918.9
2019-Jul-16 01:30N 53°57' W 003°06'810.1
2019-Jul-16 00:43N 54°02' W 002°55'0 0.0
2019-Jul-15 23:49N 54°02' W 002°55'0 0.0
2019-Jul-15 23:25N 54°02' W 002°55'0 0.1
2019-Jul-15 21:59N 54°02' W 002°55'715.6
2019-Jul-15 21:30N 53°57' W 003°05'919.0
2019-Jul-15 21:01N 53°55' W 003°20'918.8
2019-Jul-15 20:31N 53°57' W 003°36'918.8
2019-Jul-15 20:00N 54°00' W 003°51'1518.6
2019-Jul-15 19:13N 54°06' W 004°14'30 6.1
2019-Jul-15 14:21N 53°55' W 003°27'919.1
2019-Jul-15 13:54N 53°55' W 003°12'820.1
2019-Jul-15 13:30N 53°59' W 003°00'4 1.5
2019-Jul-15 10:54N 54°02' W 002°56'716.9
2019-Jul-15 10:30N 53°58' W 003°04'917.8
2019-Jul-15 10:01N 53°55' W 003°19'917.7
2019-Jul-15 09:30N 53°57' W 003°34'918.0
2019-Jul-15 09:00N 53°60' W 003°48'918.3
2019-Jul-15 08:31N 54°03' W 004°03'1617.7
2019-Jul-15 07:36N 54°09' W 004°28'35 6.7
2019-Jul-15 02:20N 53°56' W 003°32'619.2
2019-Jul-15 02:00N 53°55' W 003°22'1019.3
2019-Jul-15 01:30N 53°57' W 003°06'8 2.4
2019-Jul-14 22:17N 54°02' W 002°55'415.5
2019-Jul-14 22:00N 53°59' W 003°01'918.2
2019-Jul-14 21:31N 53°55' W 003°15'918.3
2019-Jul-14 21:01N 53°55' W 003°30'918.2
2019-Jul-14 20:30N 53°58' W 003°45'1418.4
2019-Jul-14 19:46N 54°03' W 004°06'25 4.5
2019-Jul-14 14:20N 53°55' W 003°27'818.6
2019-Jul-14 13:54N 53°55' W 003°13'819.7
2019-Jul-14 13:30N 53°59' W 003°01'5 1.9
2019-Jul-14 11:06N 54°02' W 002°56'716.0
2019-Jul-14 10:42N 53°58' W 003°04'317.4
2019-Jul-14 10:30N 53°56' W 003°09'917.3
2019-Jul-14 09:59N 53°56' W 003°24'817.2
2019-Jul-14 09:30N 53°57' W 003°38'62 9.1
2019-Jul-14 02:46N 54°36' W 005°00'416.7
2019-Jul-14 02:30N 54°37' W 005°07'917.2
2019-Jul-14 02:00N 54°40' W 005°21'917.7
2019-Jul-14 01:30N 54°43' W 005°35'815.7
2019-Jul-14 01:00N 54°41' W 005°49'510.0
2019-Jul-14 00:30N 54°37' W 005°54'0 0.8
2019-Jul-13 23:58N 54°37' W 005°55'0 0.9
2019-Jul-13 23:28N 54°37' W 005°54'3 5.4
2019-Jul-13 23:00N 54°39' W 005°52'612.8
2019-Jul-13 22:30N 54°43' W 005°42'917.9
2019-Jul-13 22:00N 54°43' W 005°27'917.3
2019-Jul-13 21:30N 54°39' W 005°13'917.1
2019-Jul-13 21:00N 54°35' W 005°01'6810.1
2019-Jul-13 14:18N 53°55' W 003°27'918.0
2019-Jul-13 13:49N 53°56' W 003°12'619.3
2019-Jul-13 13:29N 53°58' W 003°02'5 2.4
2019-Jul-13 11:13N 54°02' W 002°56'414.9
2019-Jul-13 10:55N 53°59' W 003°01'716.4
2019-Jul-13 10:30N 53°56' W 003°11'817.0
2019-Jul-13 10:00N 53°56' W 003°26'917.2
2019-Jul-13 09:30N 53°58' W 003°40'917.7
2019-Jul-13 08:59N 54°01' W 003°55'17 2.5
2019-Jul-13 02:16N 53°55' W 003°27'517.5
2019-Jul-13 01:59N 53°56' W 003°19'817.6
2019-Jul-13 01:30N 53°57' W 003°05'7 2.2
2019-Jul-12 22:13N 54°02' W 002°56'615.8
2019-Jul-12 21:49N 53°58' W 003°03'516.9
2019-Jul-12 21:30N 53°56' W 003°12'917.4
2019-Jul-12 21:00N 53°55' W 003°27'917.6
2019-Jul-12 20:30N 53°58' W 003°40'1118.0
2019-Jul-12 19:53N 54°02' W 003°58'20 3.5
2019-Jul-12 14:04N 53°55' W 003°26'117.9
2019-Jul-12 13:59N 53°55' W 003°24'817.5
2019-Jul-12 13:30N 53°56' W 003°10'10 5.2
2019-Jul-12 11:30N 54°02' W 002°56'815.4
2019-Jul-12 11:00N 53°57' W 003°06'816.7
2019-Jul-12 10:30N 53°55' W 003°20'917.0
2019-Jul-12 10:00N 53°57' W 003°34'917.2
2019-Jul-12 09:29N 53°60' W 003°48'12 1.9
2019-Jul-12 03:15N 53°55' W 003°29'417.0
2019-Jul-12 03:00N 53°56' W 003°22'816.9
2019-Jul-12 02:31N 53°56' W 003°08'9 2.8
2019-Jul-11 23:12N 54°02' W 002°56'314.3
2019-Jul-11 23:00N 54°00' W 002°59'816.3
2019-Jul-11 22:30N 53°56' W 003°10'917.2
2019-Jul-11 22:00N 53°56' W 003°25'816.9
2019-Jul-11 21:30N 53°58' W 003°39'917.2
2019-Jul-11 21:00N 54°01' W 003°53'917.3
2019-Jul-11 20:30N 54°04' W 004°06'23 4.6
2019-Jul-11 15:28N 53°56' W 003°29'1016.3
2019-Jul-11 14:50N 53°56' W 003°12'616.9
2019-Jul-11 14:30N 53°58' W 003°03'6 1.7
2019-Jul-11 11:08N 54°02' W 002°56'414.9
2019-Jul-11 10:51N 53°59' W 003°01'616.3
2019-Jul-11 10:30N 53°56' W 003°09'917.3
2019-Jul-11 10:00N 53°56' W 003°23'816.8
2019-Jul-11 09:30N 53°57' W 003°37'917.3
2019-Jul-11 08:59N 54°00' W 003°52'15 2.4
2019-Jul-11 02:54N 53°55' W 003°28'716.3
2019-Jul-11 02:28N 53°55' W 003°16'816.5
2019-Jul-11 02:00N 53°58' W 003°04'6 1.7
2019-Jul-10 22:17N 54°02' W 002°56'415.4
2019-Jul-10 22:01N 53°59' W 003°01'816.6
2019-Jul-10 21:30N 53°55' W 003°14'917.1
2019-Jul-10 21:01N 53°55' W 003°28'917.3
2019-Jul-10 20:30N 53°59' W 003°42'8 1.4
2019-Jul-10 14:31N 53°56' W 003°29'016.2
2019-Jul-10 14:30N 53°56' W 003°28'1016.3
2019-Jul-10 13:54N 53°55' W 003°12'717.0
2019-Jul-10 13:30N 53°58' W 003°02'5 1.5
2019-Jul-10 10:09N 54°02' W 002°56'515.2
2019-Jul-10 09:49N 53°58' W 003°02'516.4
2019-Jul-10 09:30N 53°56' W 003°09'816.9
2019-Jul-10 09:00N 53°55' W 003°23'816.9
2019-Jul-10 08:31N 53°56' W 003°38'916.8
2019-Jul-10 07:59N 53°59' W 003°51'14 2.8
2019-Jul-10 02:56N 53°56' W 003°28'1016.6
2019-Jul-10 02:21N 53°56' W 003°12'616.1
2019-Jul-10 02:00N 53°58' W 003°03'  
Track history (hours):
 
Tides and Currents Weather Stations Pressure Air Temp Water Temp Dewpoint Dewpoint Depression Visibility Wind Speed Wind Dir Waves Ship Positions

Ben-my-chree

Operator: The Isle of Man Steam Packet Co Ltd

Last reported at 2019-Jul-20 01:30 UTC. Time now 2019-Jul-20 01:47 UTC.
Position N 53°58' W 003°02'.

Length 125 m; draft 5.2 m.

Type: Ship. MMSI: 234983000.

Date/timePositionNaut miles runAvg speedWind from/ knotsBaromVisibWave heightAir tempDewpointWater temp
2019-Jul-20 01:30N 53°58' W 003°02'6 3.9
2019-Jul-20 00:01N 54°02' W 002°55'0 0.0
2019-Jul-19 23:55N 54°02' W 002°55'0 0.0
2019-Jul-19 23:25N 54°02' W 002°55'0 0.0
2019-Jul-19 22:58N 54°02' W 002°55'0 0.0
2019-Jul-19 22:22N 54°02' W 002°55'1 2.6
2019-Jul-19 22:00N 54°02' W 002°56'919.0
2019-Jul-19 21:31N 53°56' W 003°09'918.8
2019-Jul-19 21:00N 53°55' W 003°25'917.8
2019-Jul-19 20:30N 53°58' W 003°40'917.8
2019-Jul-19 19:59N 54°01' W 003°55'817.4
2019-Jul-19 19:30N 54°04' W 004°08'917.2
2019-Jul-19 19:00N 54°07' W 004°22'4 1.5
2019-Jul-19 16:22N 54°09' W 004°28'616.0
2019-Jul-19 16:00N 54°07' W 004°19'918.6
2019-Jul-19 15:31N 54°04' W 004°04'918.8
2019-Jul-19 15:00N 54°00' W 003°49'1318.7
2019-Jul-19 14:19N 53°56' W 003°29'618.8
2019-Jul-19 14:01N 53°56' W 003°19'918.1
2019-Jul-19 13:31N 53°58' W 003°04'713.3
2019-Jul-19 13:00N 54°02' W 002°55'0 0.0
2019-Jul-19 12:27N 54°02' W 002°55'0 0.0
2019-Jul-19 11:39N 54°02' W 002°55'0 0.0
2019-Jul-19 11:04N 54°02' W 002°55'0 2.1
2019-Jul-19 11:01N 54°02' W 002°55'816.4
2019-Jul-19 10:30N 53°57' W 003°06'918.5
2019-Jul-19 10:00N 53°56' W 003°21'917.7
2019-Jul-19 09:30N 53°57' W 003°36'917.9
2019-Jul-19 08:59N 54°01' W 003°51'14 2.1
2019-Jul-19 02:21N 53°56' W 003°29'618.2
2019-Jul-19 02:00N 53°56' W 003°18'918.0
2019-Jul-19 01:30N 53°58' W 003°03'6 5.9
2019-Jul-19 00:26N 54°02' W 002°55'0 0.0
2019-Jul-18 23:59N 54°02' W 002°55'0 0.0
2019-Jul-18 23:02N 54°02' W 002°55'0 0.0
2019-Jul-18 22:50N 54°02' W 002°55'0 0.0
2019-Jul-18 22:29N 54°02' W 002°55'0 0.3
2019-Jul-18 22:00N 54°02' W 002°55'917.3
2019-Jul-18 21:30N 53°57' W 003°07'918.9
2019-Jul-18 21:00N 53°56' W 003°22'918.8
2019-Jul-18 20:30N 53°58' W 003°38'918.5
2019-Jul-18 20:00N 54°01' W 003°53'918.1
2019-Jul-18 19:29N 54°04' W 004°08'25 4.8
2019-Jul-18 14:25N 53°56' W 003°29'818.1
2019-Jul-18 14:00N 53°56' W 003°16'918.0
2019-Jul-18 13:30N 53°58' W 003°02'5 8.9
2019-Jul-18 12:55N 54°02' W 002°55'0 0.0
2019-Jul-18 11:16N 54°02' W 002°55'0 0.0
2019-Jul-18 11:00N 54°02' W 002°55'815.6
2019-Jul-18 10:31N 53°57' W 003°05'1019.3
2019-Jul-18 10:01N 53°56' W 003°21'919.0
2019-Jul-18 09:31N 53°58' W 003°37'1018.9
2019-Jul-18 08:59N 54°01' W 003°53'15 2.3
2019-Jul-18 02:16N 53°56' W 003°29'518.8
2019-Jul-18 02:01N 53°56' W 003°21'918.5
2019-Jul-18 01:31N 53°57' W 003°05'815.3
2019-Jul-18 01:00N 54°02' W 002°55'0 0.0
2019-Jul-18 00:30N 54°02' W 002°55'0 0.0
2019-Jul-18 00:00N 54°02' W 002°55'0 0.0
2019-Jul-17 23:30N 54°02' W 002°55'0 0.0
2019-Jul-17 22:59N 54°02' W 002°55'0 0.0
2019-Jul-17 22:29N 54°02' W 002°55'0 0.0
2019-Jul-17 22:00N 54°02' W 002°55'611.4
2019-Jul-17 21:30N 53°58' W 003°02'1019.7
2019-Jul-17 21:00N 53°55' W 003°18'918.5
2019-Jul-17 20:30N 53°57' W 003°33'918.6
2019-Jul-17 20:00N 54°00' W 003°48'12 2.2
2019-Jul-17 14:24N 53°55' W 003°29'718.3
2019-Jul-17 14:00N 53°56' W 003°17'918.7
2019-Jul-17 13:30N 53°58' W 003°02'610.8
2019-Jul-17 13:00N 54°02' W 002°55'0 0.0
2019-Jul-17 12:30N 54°02' W 002°55'0 0.0
2019-Jul-17 12:00N 54°02' W 002°55'0 0.0
2019-Jul-17 11:30N 54°02' W 002°55'0 0.1
2019-Jul-17 10:53N 54°02' W 002°55'615.2
2019-Jul-17 10:30N 53°58' W 003°02'1019.4
2019-Jul-17 10:00N 53°55' W 003°18'918.6
2019-Jul-17 09:30N 53°57' W 003°34'1018.6
2019-Jul-17 09:00N 54°00' W 003°49'11 1.7
2019-Jul-17 02:17N 53°56' W 003°31'519.0
2019-Jul-17 02:01N 53°56' W 003°22'1019.2
2019-Jul-17 01:30N 53°57' W 003°06'8 7.0
2019-Jul-17 00:22N 54°02' W 002°55'0 0.0
2019-Jul-16 23:58N 54°02' W 002°55'0 0.0
2019-Jul-16 23:22N 54°02' W 002°55'0 0.0
2019-Jul-16 22:58N 54°02' W 002°55'0 0.0
2019-Jul-16 22:28N 54°02' W 002°55'0 0.0
2019-Jul-16 22:00N 54°02' W 002°55'714.8
2019-Jul-16 21:30N 53°57' W 003°04'1019.7
2019-Jul-16 21:01N 53°55' W 003°20'918.8
2019-Jul-16 20:31N 53°57' W 003°36'918.9
2019-Jul-16 20:01N 54°01' W 003°51'918.8
2019-Jul-16 19:30N 54°04' W 004°06'918.4
2019-Jul-16 19:00N 54°07' W 004°21'5 3.8
2019-Jul-16 17:45N 54°09' W 004°28'0 0.0
2019-Jul-16 17:27N 54°09' W 004°28'0 0.0
2019-Jul-16 16:57N 54°09' W 004°28'0 0.0
2019-Jul-16 16:27N 54°09' W 004°28'1816.1
2019-Jul-16 15:22N 54°03' W 004°00'618.2
2019-Jul-16 15:00N 54°00' W 003°50'918.1
2019-Jul-16 14:30N 53°57' W 003°35'918.1
2019-Jul-16 14:00N 53°55' W 003°20'918.9
2019-Jul-16 13:30N 53°57' W 003°05'714.8
2019-Jul-16 13:00N 54°02' W 002°55'0 0.0
2019-Jul-16 11:52N 54°02' W 002°55'0 0.0
2019-Jul-16 11:05N 54°02' W 002°55'0 0.2
2019-Jul-16 11:00N 54°02' W 002°55'714.1
2019-Jul-16 10:31N 53°58' W 003°04'918.7
2019-Jul-16 10:01N 53°55' W 003°19'918.7
2019-Jul-16 09:30N 53°56' W 003°35'918.8
2019-Jul-16 09:00N 53°59' W 003°50'918.8
2019-Jul-16 08:31N 54°03' W 004°05'918.5
2019-Jul-16 08:00N 54°07' W 004°19'610.3
2019-Jul-16 07:28N 54°09' W 004°28'0 0.0
2019-Jul-16 06:58N 54°09' W 004°28'0 0.0
2019-Jul-16 05:52N 54°09' W 004°28'0 0.0
2019-Jul-16 05:13N 54°09' W 004°28'0 0.0
2019-Jul-16 04:46N 54°09' W 004°28'0 0.0
2019-Jul-16 04:27N 54°09' W 004°28'813.4
2019-Jul-16 03:52N 54°07' W 004°15'718.4
2019-Jul-16 03:31N 54°05' W 004°05'918.1
2019-Jul-16 03:00N 54°00' W 003°51'918.1
2019-Jul-16 02:30N 53°58' W 003°37'918.2
2019-Jul-16 02:00N 53°56' W 003°22'918.9
2019-Jul-16 01:30N 53°57' W 003°06'810.1
2019-Jul-16 00:43N 54°02' W 002°55'0 0.0
2019-Jul-15 23:49N 54°02' W 002°55'0 0.0
2019-Jul-15 23:25N 54°02' W 002°55'0 0.1
2019-Jul-15 21:59N 54°02' W 002°55'715.6
2019-Jul-15 21:30N 53°57' W 003°05'919.0
2019-Jul-15 21:01N 53°55' W 003°20'918.8
2019-Jul-15 20:31N 53°57' W 003°36'918.8
2019-Jul-15 20:00N 54°00' W 003°51'1518.6
2019-Jul-15 19:13N 54°06' W 004°14'30 6.1
2019-Jul-15 14:21N 53°55' W 003°27'919.1
2019-Jul-15 13:54N 53°55' W 003°12'820.1
2019-Jul-15 13:30N 53°59' W 003°00'4 1.5
2019-Jul-15 10:54N 54°02' W 002°56'716.9
2019-Jul-15 10:30N 53°58' W 003°04'917.8
2019-Jul-15 10:01N 53°55' W 003°19'917.7
2019-Jul-15 09:30N 53°57' W 003°34'918.0
2019-Jul-15 09:00N 53°60' W 003°48'918.3
2019-Jul-15 08:31N 54°03' W 004°03'1617.7
2019-Jul-15 07:36N 54°09' W 004°28'35 6.7
2019-Jul-15 02:20N 53°56' W 003°32'619.2
2019-Jul-15 02:00N 53°55' W 003°22'1019.3
2019-Jul-15 01:30N 53°57' W 003°06'8 2.4
2019-Jul-14 22:17N 54°02' W 002°55'415.5
2019-Jul-14 22:00N 53°59' W 003°01'918.2
2019-Jul-14 21:31N 53°55' W 003°15'918.3
2019-Jul-14 21:01N 53°55' W 003°30'918.2
2019-Jul-14 20:30N 53°58' W 003°45'1418.4
2019-Jul-14 19:46N 54°03' W 004°06'25 4.5
2019-Jul-14 14:20N 53°55' W 003°27'818.6
2019-Jul-14 13:54N 53°55' W 003°13'819.7
2019-Jul-14 13:30N 53°59' W 003°01'5 1.9
2019-Jul-14 11:06N 54°02' W 002°56'716.0
2019-Jul-14 10:42N 53°58' W 003°04'317.4
2019-Jul-14 10:30N 53°56' W 003°09'917.3
2019-Jul-14 09:59N 53°56' W 003°24'817.2
2019-Jul-14 09:30N 53°57' W 003°38'62 9.1
2019-Jul-14 02:46N 54°36' W 005°00'416.7
2019-Jul-14 02:30N 54°37' W 005°07'917.2
2019-Jul-14 02:00N 54°40' W 005°21'917.7
2019-Jul-14 01:30N 54°43' W 005°35'815.7
2019-Jul-14 01:00N 54°41' W 005°49'510.0
2019-Jul-14 00:30N 54°37' W 005°54'0 0.8
2019-Jul-13 23:58N 54°37' W 005°55'0 0.9
2019-Jul-13 23:28N 54°37' W 005°54'3 5.4
2019-Jul-13 23:00N 54°39' W 005°52'612.8
2019-Jul-13 22:30N 54°43' W 005°42'917.9
2019-Jul-13 22:00N 54°43' W 005°27'917.3
2019-Jul-13 21:30N 54°39' W 005°13'917.1
2019-Jul-13 21:00N 54°35' W 005°01'6810.1
2019-Jul-13 14:18N 53°55' W 003°27'918.0
2019-Jul-13 13:49N 53°56' W 003°12'619.3
2019-Jul-13 13:29N 53°58' W 003°02'5 2.4
2019-Jul-13 11:13N 54°02' W 002°56'414.9
2019-Jul-13 10:55N 53°59' W 003°01'716.4
2019-Jul-13 10:30N 53°56' W 003°11'817.0
2019-Jul-13 10:00N 53°56' W 003°26'917.2
2019-Jul-13 09:30N 53°58' W 003°40'917.7
2019-Jul-13 08:59N 54°01' W 003°55'17 2.5
2019-Jul-13 02:16N 53°55' W 003°27'517.5
2019-Jul-13 01:59N 53°56' W 003°19'817.6
2019-Jul-13 01:30N 53°57' W 003°05'7 2.2
2019-Jul-12 22:13N 54°02' W 002°56'615.8
2019-Jul-12 21:49N 53°58' W 003°03'516.9
2019-Jul-12 21:30N 53°56' W 003°12'917.4
2019-Jul-12 21:00N 53°55' W 003°27'917.6
2019-Jul-12 20:30N 53°58' W 003°40'1118.0
2019-Jul-12 19:53N 54°02' W 003°58'20 3.5
2019-Jul-12 14:04N 53°55' W 003°26'117.9
2019-Jul-12 13:59N 53°55' W 003°24'817.5
2019-Jul-12 13:30N 53°56' W 003°10'10 5.2
2019-Jul-12 11:30N 54°02' W 002°56'815.4
2019-Jul-12 11:00N 53°57' W 003°06'816.7
2019-Jul-12 10:30N 53°55' W 003°20'917.0
2019-Jul-12 10:00N 53°57' W 003°34'917.2
2019-Jul-12 09:29N 53°60' W 003°48'12 1.9
2019-Jul-12 03:15N 53°55' W 003°29'417.0
2019-Jul-12 03:00N 53°56' W 003°22'816.9
2019-Jul-12 02:31N 53°56' W 003°08'9 2.8
2019-Jul-11 23:12N 54°02' W 002°56'314.3
2019-Jul-11 23:00N 54°00' W 002°59'816.3
2019-Jul-11 22:30N 53°56' W 003°10'917.2
2019-Jul-11 22:00N 53°56' W 003°25'816.9
2019-Jul-11 21:30N 53°58' W 003°39'917.2
2019-Jul-11 21:00N 54°01' W 003°53'917.3
2019-Jul-11 20:30N 54°04' W 004°06'23 4.6
2019-Jul-11 15:28N 53°56' W 003°29'1016.3
2019-Jul-11 14:50N 53°56' W 003°12'616.9
2019-Jul-11 14:30N 53°58' W 003°03'6 1.7
2019-Jul-11 11:08N 54°02' W 002°56'414.9
2019-Jul-11 10:51N 53°59' W 003°01'616.3
2019-Jul-11 10:30N 53°56' W 003°09'917.3
2019-Jul-11 10:00N 53°56' W 003°23'816.8
2019-Jul-11 09:30N 53°57' W 003°37'917.3
2019-Jul-11 08:59N 54°00' W 003°52'15 2.4
2019-Jul-11 02:54N 53°55' W 003°28'716.3
2019-Jul-11 02:28N 53°55' W 003°16'816.5
2019-Jul-11 02:00N 53°58' W 003°04'6 1.7
2019-Jul-10 22:17N 54°02' W 002°56'415.4
2019-Jul-10 22:01N 53°59' W 003°01'816.6
2019-Jul-10 21:30N 53°55' W 003°14'917.1
2019-Jul-10 21:01N 53°55' W 003°28'917.3
2019-Jul-10 20:30N 53°59' W 003°42'8 1.4
2019-Jul-10 14:31N 53°56' W 003°29'016.2
2019-Jul-10 14:30N 53°56' W 003°28'1016.3
2019-Jul-10 13:54N 53°55' W 003°12'717.0
2019-Jul-10 13:30N 53°58' W 003°02'5 1.5
2019-Jul-10 10:09N 54°02' W 002°56'515.2
2019-Jul-10 09:49N 53°58' W 003°02'516.4
2019-Jul-10 09:30N 53°56' W 003°09'816.9
2019-Jul-10 09:00N 53°55' W 003°23'816.9
2019-Jul-10 08:31N 53°56' W 003°38'916.8
2019-Jul-10 07:59N 53°59' W 003°51'14 2.8
2019-Jul-10 02:56N 53°56' W 003°28'1016.6
2019-Jul-10 02:21N 53°56' W 003°12'616.1
2019-Jul-10 02:00N 53°58' W 003°03'  

Dump ship's entire track history